Terminal Aerodrome Forecast
Issued by NWS Grand Junction, CO

Home | Current Version | Previous Version | Text Only | Print | Product List | Glossary On
Versions: 1 2 3 4 5 6 7 8 9 10 11 12 13 14 15 16 17 18 19 20 21 22 23 24 25 26 27 28 29 30
239
FTUS45 KGJT 230019 RRA
TAFGJT
TAF
KGJT 230019Z 2300/2324 20012G20KT P6SM SCT100 BKN150
     FM230300 14010G18KT P6SM BKN100 OVC150
     FM231200 17006KT P6SM VCSH BKN060 OVC100
     FM231700 20010G20KT P6SM VCSH BKN060 OVC100
     FM232000 27014G24KT P6SM VCSH BKN040 OVC060=

USA.gov is the U.S. government's official web portal to all federal, state and local government web resources and services.